スィクティフカル の空港の天気 - METARとTAF

Syktyvkar ( UUYY / SCW ) - ロシア スィクティフカル
飛行場実況気象(Metar)
観測時間12/14 09:00 MSK (12/14 06:00 UTC)
風向・風速南南西 1m/s
視程9000m
天気現象
全天を覆う雲 雲底高度 120m
気温-16℃
湿度92%
気圧1032hPa
METARUUYY 140600Z 20001MPS 9000 OVC004 M16/M17 Q1032 R18/420255 NOSIG RMK QBB130 QFE765/1021
過去の天気等 Google飛行場航空写真 Wunderground天気予報

過去48時間のMETAR

飛行場予報(TAF)
発表時間: 12/14 08:00 MSK (12/14 05:00 UTC)
予報対象時間: 14日9時 MSK ~ 15日9時 MSK
風向・風速西南西 3m/s
視程6000m
全天の8割程度の雲 雲底高度 150m
14日9時 MSK ~ 14日12時 MSK に一時的に
風向・風速不定 1m/s
視程1000m
天気現象もや 煙
全天の8割程度の雲 雲底高度 60m
14日12時 MSK ~ 14日16時 MSK に一時的に
視程2100m
天気現象もや
全天の8割程度の雲 雲底高度 90m
14日16時 MSK ~ 15日9時 MSK に一時的に
視程300m
天気現象氷霧
全天の8割程度の雲 雲底高度 60m
TAF UUYY 140500Z 1406/1506 24003MPS 6000 BKN005
TEMPO 1406/1409 VRB01MPS 1000 BR FU BKN002
TEMPO 1409/1413 2100 BR BKN003
TEMPO 1413/1506 0300 FZFG BKN002